sensor_id;sensor_type;location;lat;lon;timestamp;pressure;altitude;pressure_sealevel;temperature;humidity
24440;BME280;12618;54.386;18.394;2023-11-21T00:02:12;99336.16;;;-1.09;100.00
24440;BME280;12618;54.386;18.394;2023-11-21T00:04:44;99339.29;;;-1.11;100.00
24440;BME280;12618;54.386;18.394;2023-11-21T00:07:17;99336.72;;;-1.13;100.00
24440;BME280;12618;54.386;18.394;2023-11-21T00:09:49;99334.15;;;-1.17;100.00
24440;BME280;12618;54.386;18.394;2023-11-21T00:12:22;99339.50;;;-1.19;100.00
24440;BME280;12618;54.386;18.394;2023-11-21T00:14:56;99340.38;;;-1.20;100.00
24440;BME280;12618;54.386;18.394;2023-11-21T00:17:29;99342.62;;;-1.21;100.00
24440;BME280;12618;54.386;18.394;2023-11-21T00:20:00;99340.07;;;-1.23;100.00
24440;BME280;12618;54.386;18.394;2023-11-21T00:22:37;99338.35;;;-1.25;100.00
24440;BME280;12618;54.386;18.394;2023-11-21T00:25:12;99345.94;;;-1.24;100.00
24440;BME280;12618;54.386;18.394;2023-11-21T00:27:45;99349.40;;;-1.26;100.00
24440;BME280;12618;54.386;18.394;2023-11-21T00:30:17;99353.55;;;-1.27;100.00
24440;BME280;12618;54.386;18.394;2023-11-21T00:32:49;99356.65;;;-1.29;100.00
24440;BME280;12618;54.386;18.394;2023-11-21T00:35:21;99358.21;;;-1.29;100.00
24440;BME280;12618;54.386;18.394;2023-11-21T00:37:52;99364.25;;;-1.30;100.00
24440;BME280;12618;54.386;18.394;2023-11-21T00:40:24;99369.95;;;-1.31;100.00
24440;BME280;12618;54.386;18.394;2023-11-21T00:42:56;99369.60;;;-1.31;100.00
24440;BME280;12618;54.386;18.394;2023-11-21T00:45:28;99372.89;;;-1.32;100.00
24440;BME280;12618;54.386;18.394;2023-11-21T00:47:59;99378.92;;;-1.32;100.00
24440;BME280;12618;54.386;18.394;2023-11-21T00:50:31;99381.17;;;-1.31;100.00
24440;BME280;12618;54.386;18.394;2023-11-21T00:53:02;99376.16;;;-1.31;100.00
24440;BME280;12618;54.386;18.394;2023-11-21T00:55:34;99372.90;;;-1.32;100.00
24440;BME280;12618;54.386;18.394;2023-11-21T00:58:06;99377.06;;;-1.35;100.00
24440;BME280;12618;54.386;18.394;2023-11-21T01:00:38;99380.35;;;-1.36;100.00
24440;BME280;12618;54.386;18.394;2023-11-21T01:03:13;99379.66;;;-1.38;100.00
24440;BME280;12618;54.386;18.394;2023-11-21T01:05:45;99381.73;;;-1.38;100.00
24440;BME280;12618;54.386;18.394;2023-11-21T01:08:17;99379.66;;;-1.37;100.00
24440;BME280;12618;54.386;18.394;2023-11-21T01:10:49;99385.17;;;-1.36;100.00
24440;BME280;12618;54.386;18.394;2023-11-21T01:13:20;99385.87;;;-1.35;100.00
24440;BME280;12618;54.386;18.394;2023-11-21T01:15:52;99391.20;;;-1.32;100.00
24440;BME280;12618;54.386;18.394;2023-11-21T01:18:24;99391.16;;;-1.27;100.00
24440;BME280;12618;54.386;18.394;2023-11-21T01:20:57;99389.61;;;-1.24;100.00
24440;BME280;12618;54.386;18.394;2023-11-21T01:23:28;99390.08;;;-1.20;100.00
24440;BME280;12618;54.386;18.394;2023-11-21T01:26:01;99396.80;;;-1.14;100.00
24440;BME280;12618;54.386;18.394;2023-11-21T01:28:32;99394.16;;;-1.09;100.00
24440;BME280;12618;54.386;18.394;2023-11-21T01:31:05;99400.70;;;-1.04;100.00
24440;BME280;12618;54.386;18.394;2023-11-21T01:33:36;99398.43;;;-1.00;100.00
24440;BME280;12618;54.386;18.394;2023-11-21T01:36:09;99402.02;;;-0.96;100.00
24440;BME280;12618;54.386;18.394;2023-11-21T01:38:43;99398.39;;;-0.94;100.00
24440;BME280;12618;54.386;18.394;2023-11-21T01:41:14;99404.59;;;-0.90;100.00
24440;BME280;12618;54.386;18.394;2023-11-21T01:43:46;99407.46;;;-0.86;100.00
24440;BME280;12618;54.386;18.394;2023-11-21T01:46:18;99409.35;;;-0.80;100.00
24440;BME280;12618;54.386;18.394;2023-11-21T01:48:52;99410.02;;;-0.79;100.00
24440;BME280;12618;54.386;18.394;2023-11-21T01:51:25;99414.02;;;-0.80;100.00
24440;BME280;12618;54.386;18.394;2023-11-21T01:53:58;99412.08;;;-0.78;100.00
24440;BME280;12618;54.386;18.394;2023-11-21T01:56:31;99410.85;;;-0.75;100.00
24440;BME280;12618;54.386;18.394;2023-11-21T01:59:03;99412.92;;;-0.76;100.00
24440;BME280;12618;54.386;18.394;2023-11-21T02:01:35;99408.78;;;-0.75;100.00
24440;BME280;12618;54.386;18.394;2023-11-21T02:04:07;99418.09;;;-0.71;100.00
24440;BME280;12618;54.386;18.394;2023-11-21T02:06:39;99419.29;;;-0.69;100.00
24440;BME280;12618;54.386;18.394;2023-11-21T02:09:11;99420.84;;;-0.70;100.00
24440;BME280;12618;54.386;18.394;2023-11-21T02:11:46;99428.10;;;-0.69;100.00
24440;BME280;12618;54.386;18.394;2023-11-21T02:14:18;99427.58;;;-0.68;100.00
24440;BME280;12618;54.386;18.394;2023-11-21T02:16:51;99424.45;;;-0.66;100.00
24440;BME280;12618;54.386;18.394;2023-11-21T02:19:23;99423.73;;;-0.65;100.00
24440;BME280;12618;54.386;18.394;2023-11-21T02:21:57;99425.96;;;-0.63;100.00
24440;BME280;12618;54.386;18.394;2023-11-21T02:24:36;99433.38;;;-0.59;100.00
24440;BME280;12618;54.386;18.394;2023-11-21T02:27:08;99432.01;;;-0.61;100.00
24440;BME280;12618;54.386;18.394;2023-11-21T02:29:39;99438.74;;;-0.61;100.00
24440;BME280;12618;54.386;18.394;2023-11-21T02:32:11;99444.61;;;-0.61;100.00
24440;BME280;12618;54.386;18.394;2023-11-21T02:34:43;99445.14;;;-0.61;100.00
24440;BME280;12618;54.386;18.394;2023-11-21T02:37:15;99448.92;;;-0.59;100.00
24440;BME280;12618;54.386;18.394;2023-11-21T02:39:47;99452.22;;;-0.61;100.00
24440;BME280;12618;54.386;18.394;2023-11-21T02:42:18;99449.98;;;-0.62;100.00
24440;BME280;12618;54.386;18.394;2023-11-21T02:44:50;99449.45;;;-0.62;100.00
24440;BME280;12618;54.386;18.394;2023-11-21T02:47:22;99457.91;;;-0.59;100.00
24440;BME280;12618;54.386;18.394;2023-11-21T02:49:54;99457.90;;;-0.57;100.00
24440;BME280;12618;54.386;18.394;2023-11-21T02:52:26;99459.11;;;-0.58;100.00
24440;BME280;12618;54.386;18.394;2023-11-21T02:55:03;99459.46;;;-0.59;100.00
24440;BME280;12618;54.386;18.394;2023-11-21T02:57:35;99459.65;;;-0.61;100.00
24440;BME280;12618;54.386;18.394;2023-11-21T03:00:07;99462.08;;;-0.63;100.00
24440;BME280;12618;54.386;18.394;2023-11-21T03:02:39;99457.75;;;-0.63;100.00
24440;BME280;12618;54.386;18.394;2023-11-21T03:05:12;99464.13;;;-0.59;100.00
24440;BME280;12618;54.386;18.394;2023-11-21T03:07:43;99464.30;;;-0.57;100.00
24440;BME280;12618;54.386;18.394;2023-11-21T03:10:15;99462.52;;;-0.54;100.00
24440;BME280;12618;54.386;18.394;2023-11-21T03:12:47;99467.00;;;-0.52;100.00
24440;BME280;12618;54.386;18.394;2023-11-21T03:15:18;99475.64;;;-0.51;100.00
24440;BME280;12618;54.386;18.394;2023-11-21T03:17:50;99475.29;;;-0.50;100.00
24440;BME280;12618;54.386;18.394;2023-11-21T03:20:22;99474.25;;;-0.49;100.00
24440;BME280;12618;54.386;18.394;2023-11-21T03:22:53;99481.86;;;-0.49;100.00
24440;BME280;12618;54.386;18.394;2023-11-21T03:25:25;99481.34;;;-0.50;100.00
24440;BME280;12618;54.386;18.394;2023-11-21T03:27:57;99481.67;;;-0.48;100.00
24440;BME280;12618;54.386;18.394;2023-11-21T03:30:29;99477.18;;;-0.48;100.00
24440;BME280;12618;54.386;18.394;2023-11-21T03:33:01;99479.78;;;-0.47;100.00
24440;BME280;12618;54.386;18.394;2023-11-21T03:35:32;99476.96;;;-0.43;100.00
24440;BME280;12618;54.386;18.394;2023-11-21T03:38:04;99469.69;;;-0.40;100.00
24440;BME280;12618;54.386;18.394;2023-11-21T03:40:36;99467.97;;;-0.43;100.00
24440;BME280;12618;54.386;18.394;2023-11-21T03:43:10;99469.52;;;-0.43;100.00
24440;BME280;12618;54.386;18.394;2023-11-21T03:45:44;99471.60;;;-0.44;100.00
24440;BME280;12618;54.386;18.394;2023-11-21T03:48:16;99472.34;;;-0.48;100.00
24440;BME280;12618;54.386;18.394;2023-11-21T03:50:47;99473.23;;;-0.52;100.00
24440;BME280;12618;54.386;18.394;2023-11-21T03:53:20;99475.85;;;-0.54;100.00
24440;BME280;12618;54.386;18.394;2023-11-21T03:55:52;99482.08;;;-0.55;100.00
24440;BME280;12618;54.386;18.394;2023-11-21T03:58:24;99482.45;;;-0.58;100.00
24440;BME280;12618;54.386;18.394;2023-11-21T04:00:56;99487.29;;;-0.60;100.00
24440;BME280;12618;54.386;18.394;2023-11-21T04:03:28;99487.31;;;-0.65;100.00
24440;BME280;12618;54.386;18.394;2023-11-21T04:05:59;99486.84;;;-0.68;100.00
24440;BME280;12618;54.386;18.394;2023-11-21T04:08:32;99488.21;;;-0.67;100.00
24440;BME280;12618;54.386;18.394;2023-11-21T04:11:05;99494.25;;;-0.68;100.00
24440;BME280;12618;54.386;18.394;2023-11-21T04:13:40;99499.96;;;-0.69;100.00
24440;BME280;12618;54.386;18.394;2023-11-21T04:16:12;99502.20;;;-0.69;100.00
24440;BME280;12618;54.386;18.394;2023-11-21T04:18:44;99507.22;;;-0.70;100.00
24440;BME280;12618;54.386;18.394;2023-11-21T04:21:16;99502.73;;;-0.69;100.00
24440;BME280;12618;54.386;18.394;2023-11-21T04:23:47;99503.94;;;-0.71;100.00
24440;BME280;12618;54.386;18.394;2023-11-21T04:26:19;99506.88;;;-0.70;100.00
24440;BME280;12618;54.386;18.394;2023-11-21T04:28:51;99508.77;;;-0.70;100.00
24440;BME280;12618;54.386;18.394;2023-11-21T04:31:23;99508.77;;;-0.71;100.00
24440;BME280;12618;54.386;18.394;2023-11-21T04:33:55;99511.37;;;-0.71;100.00
24440;BME280;12618;54.386;18.394;2023-11-21T04:36:26;99514.66;;;-0.73;100.00
24440;BME280;12618;54.386;18.394;2023-11-21T04:38:58;99523.66;;;-0.78;100.00
24440;BME280;12618;54.386;18.394;2023-11-21T04:41:30;99525.60;;;-0.83;100.00
24440;BME280;12618;54.386;18.394;2023-11-21T04:44:03;99532.70;;;-0.87;100.00
24440;BME280;12618;54.386;18.394;2023-11-21T04:46:36;99529.10;;;-0.92;100.00
24440;BME280;12618;54.386;18.394;2023-11-21T04:49:08;99529.96;;;-0.94;100.00
24440;BME280;12618;54.386;18.394;2023-11-21T04:51:40;99530.14;;;-0.96;100.00
24440;BME280;12618;54.386;18.394;2023-11-21T04:54:12;99534.98;;;-0.99;100.00
24440;BME280;12618;54.386;18.394;2023-11-21T04:56:44;99540.72;;;-1.03;100.00
24440;BME280;12618;54.386;18.394;2023-11-21T04:59:16;99547.97;;;-1.06;100.00
24440;BME280;12618;54.386;18.394;2023-11-21T05:01:47;99549.52;;;-1.08;100.00
24440;BME280;12618;54.386;18.394;2023-11-21T05:04:20;99554.88;;;-1.09;100.00
24440;BME280;12618;54.386;18.394;2023-11-21T05:06:54;99549.36;;;-1.10;100.00
24440;BME280;12618;54.386;18.394;2023-11-21T05:09:26;99551.60;;;-1.10;100.00
24440;BME280;12618;54.386;18.394;2023-11-21T05:11:59;99557.47;;;-1.10;100.00
24440;BME280;12618;54.386;18.394;2023-11-21T05:14:31;99563.72;;;-1.11;100.00
24440;BME280;12618;54.386;18.394;2023-11-21T05:17:03;99571.14;;;-1.14;100.00
24440;BME280;12618;54.386;18.394;2023-11-21T05:19:36;99578.57;;;-1.15;100.00
24440;BME280;12618;54.386;18.394;2023-11-21T05:22:07;99584.61;;;-1.14;100.00
24440;BME280;12618;54.386;18.394;2023-11-21T05:24:40;99590.30;;;-1.13;100.00
24440;BME280;12618;54.386;18.394;2023-11-21T05:27:11;99588.92;;;-1.12;100.00
24440;BME280;12618;54.386;18.394;2023-11-21T05:29:44;99598.41;;;-1.13;100.00
24440;BME280;12618;54.386;18.394;2023-11-21T05:32:15;99606.68;;;-1.09;100.00
24440;BME280;12618;54.386;18.394;2023-11-21T05:34:48;99615.64;;;-1.01;100.00
24440;BME280;12618;54.386;18.394;2023-11-21T05:37:20;99618.55;;;-0.96;100.00
24440;BME280;12618;54.386;18.394;2023-11-21T05:39:55;99620.45;;;-0.89;100.00
24440;BME280;12618;54.386;18.394;2023-11-21T05:42:36;99618.86;;;-0.83;100.00
24440;BME280;12618;54.386;18.394;2023-11-21T05:45:10;99624.91;;;-0.83;100.00
24440;BME280;12618;54.386;18.394;2023-11-21T05:47:45;99626.13;;;-0.83;100.00
24440;BME280;12618;54.386;18.394;2023-11-21T05:50:18;99638.03;;;-0.83;100.00
24440;BME280;12618;54.386;18.394;2023-11-21T05:52:50;99643.90;;;-0.82;100.00
24440;BME280;12618;54.386;18.394;2023-11-21T05:55:22;99652.01;;;-0.78;100.00
24440;BME280;12618;54.386;18.394;2023-11-21T05:57:57;99652.51;;;-0.74;100.00
24440;BME280;12618;54.386;18.394;2023-11-21T06:00:29;99650.95;;;-0.72;100.00
24440;BME280;12618;54.386;18.394;2023-11-21T06:03:00;99656.13;;;-0.70;100.00
24440;BME280;12618;54.386;18.394;2023-11-21T06:05:32;99662.15;;;-0.66;100.00
24440;BME280;12618;54.386;18.394;2023-11-21T06:08:08;99665.77;;;-0.61;100.00
24440;BME280;12618;54.386;18.394;2023-11-21T06:10:40;99673.20;;;-0.58;100.00
24440;BME280;12618;54.386;18.394;2023-11-21T06:13:12;99680.96;;;-0.57;100.00
24440;BME280;12618;54.386;18.394;2023-11-21T06:15:43;99679.39;;;-0.55;100.00
24440;BME280;12618;54.386;18.394;2023-11-21T06:18:15;99690.45;;;-0.52;100.00
24440;BME280;12618;54.386;18.394;2023-11-21T06:20:47;99689.06;;;-0.51;100.00
24440;BME280;12618;54.386;18.394;2023-11-21T06:23:19;99689.92;;;-0.50;100.00
24440;BME280;12618;54.386;18.394;2023-11-21T06:25:52;99686.81;;;-0.48;100.00
24440;BME280;12618;54.386;18.394;2023-11-21T06:28:24;99688.19;;;-0.47;100.00
24440;BME280;12618;54.386;18.394;2023-11-21T06:30:56;99696.48;;;-0.46;100.00
24440;BME280;12618;54.386;18.394;2023-11-21T06:33:29;99696.31;;;-0.46;100.00
24440;BME280;12618;54.386;18.394;2023-11-21T06:36:01;99707.52;;;-0.44;100.00
24440;BME280;12618;54.386;18.394;2023-11-21T06:38:35;99714.77;;;-0.43;100.00
24440;BME280;12618;54.386;18.394;2023-11-21T06:41:07;99725.84;;;-0.44;100.00
24440;BME280;12618;54.386;18.394;2023-11-21T06:43:39;99726.52;;;-0.43;100.00
24440;BME280;12618;54.386;18.394;2023-11-21T06:46:12;99735.87;;;-0.45;100.00
24440;BME280;12618;54.386;18.394;2023-11-21T06:48:47;99741.08;;;-0.47;100.00
24440;BME280;12618;54.386;18.394;2023-11-21T06:51:21;99745.73;;;-0.51;100.00
24440;BME280;12618;54.386;18.394;2023-11-21T06:53:53;99747.98;;;-0.52;100.00
24440;BME280;12618;54.386;18.394;2023-11-21T06:56:25;99756.28;;;-0.51;100.00
24440;BME280;12618;54.386;18.394;2023-11-21T06:58:57;99753.35;;;-0.51;100.00
24440;BME280;12618;54.386;18.394;2023-11-21T07:01:29;99765.95;;;-0.51;100.00
24440;BME280;12618;54.386;18.394;2023-11-21T07:04:01;99768.38;;;-0.51;100.00
24440;BME280;12618;54.386;18.394;2023-11-21T07:06:33;99770.79;;;-0.53;100.00
24440;BME280;12618;54.386;18.394;2023-11-21T07:09:05;99771.17;;;-0.56;100.00
24440;BME280;12618;54.386;18.394;2023-11-21T07:11:39;99776.70;;;-0.57;100.00
24440;BME280;12618;54.386;18.394;2023-11-21T07:14:15;99774.64;;;-0.59;100.00
24440;BME280;12618;54.386;18.394;2023-11-21T07:16:48;99780.15;;;-0.56;100.00
24440;BME280;12618;54.386;18.394;2023-11-21T07:19:20;99781.51;;;-0.50;100.00
24440;BME280;12618;54.386;18.394;2023-11-21T07:21:53;99785.66;;;-0.46;100.00
24440;BME280;12618;54.386;18.394;2023-11-21T07:24:25;99784.09;;;-0.44;100.00
24440;BME280;12618;54.386;18.394;2023-11-21T07:26:58;99785.80;;;-0.40;100.00
24440;BME280;12618;54.386;18.394;2023-11-21T07:29:30;99786.50;;;-0.38;100.00
24440;BME280;12618;54.386;18.394;2023-11-21T07:32:02;99786.30;;;-0.34;100.00
24440;BME280;12618;54.386;18.394;2023-11-21T07:34:34;99793.90;;;-0.29;100.00
24440;BME280;12618;54.386;18.394;2023-11-21T07:37:08;99791.48;;;-0.31;100.00
24440;BME280;12618;54.386;18.394;2023-11-21T07:39:40;99793.20;;;-0.29;100.00
24440;BME280;12618;54.386;18.394;2023-11-21T07:42:14;99789.41;;;-0.28;100.00
24440;BME280;12618;54.386;18.394;2023-11-21T07:44:45;99788.54;;;-0.25;100.00
24440;BME280;12618;54.386;18.394;2023-11-21T07:47:18;99791.99;;;-0.25;100.00
24440;BME280;12618;54.386;18.394;2023-11-21T07:49:50;99789.23;;;-0.24;100.00
24440;BME280;12618;54.386;18.394;2023-11-21T07:52:22;99793.02;;;-0.23;100.00
24440;BME280;12618;54.386;18.394;2023-11-21T07:54:54;99796.30;;;-0.19;100.00
24440;BME280;12618;54.386;18.394;2023-11-21T07:57:28;99796.60;;;-0.08;100.00
24440;BME280;12618;54.386;18.394;2023-11-21T08:00:00;99799.86;;;0.02;100.00
24440;BME280;12618;54.386;18.394;2023-11-21T08:02:32;99799.30;;;0.09;100.00
24440;BME280;12618;54.386;18.394;2023-11-21T08:05:04;99799.10;;;0.15;100.00
24440;BME280;12618;54.386;18.394;2023-11-21T08:07:35;99804.98;;;0.17;100.00
24440;BME280;12618;54.386;18.394;2023-11-21T08:10:08;99804.80;;;0.13;100.00
24440;BME280;12618;54.386;18.394;2023-11-21T08:12:41;99809.31;;;0.12;100.00
24440;BME280;12618;54.386;18.394;2023-11-21T08:15:14;99816.23;;;0.12;100.00
24440;BME280;12618;54.386;18.394;2023-11-21T08:17:46;99815.54;;;0.14;100.00
24440;BME280;12618;54.386;18.394;2023-11-21T08:20:18;99814.85;;;0.13;100.00
24440;BME280;12618;54.386;18.394;2023-11-21T08:22:50;99815.35;;;0.18;100.00
24440;BME280;12618;54.386;18.394;2023-11-21T08:25:24;99816.56;;;0.19;100.00
24440;BME280;12618;54.386;18.394;2023-11-21T08:27:57;99824.17;;;0.19;100.00
24440;BME280;12618;54.386;18.394;2023-11-21T08:30:29;99825.91;;;0.19;100.00
24440;BME280;12618;54.386;18.394;2023-11-21T08:33:01;99834.39;;;0.15;100.00
24440;BME280;12618;54.386;18.394;2023-11-21T08:35:35;99841.48;;;0.14;100.00
24440;BME280;12618;54.386;18.394;2023-11-21T08:38:07;99844.77;;;0.13;100.00
24440;BME280;12618;54.386;18.394;2023-11-21T08:40:41;99848.95;;;0.10;100.00
24440;BME280;12618;54.386;18.394;2023-11-21T08:43:13;99848.27;;;0.09;100.00
24440;BME280;12618;54.386;18.394;2023-11-21T08:45:46;99848.08;;;0.10;100.00
24440;BME280;12618;54.386;18.394;2023-11-21T08:48:18;99856.91;;;0.07;100.00
24440;BME280;12618;54.386;18.394;2023-11-21T08:50:50;99857.95;;;0.04;100.00
24440;BME280;12618;54.386;18.394;2023-11-21T08:53:22;99861.24;;;0.04;100.00
24440;BME280;12618;54.386;18.394;2023-11-21T08:55:54;99866.09;;;0.01;100.00
24440;BME280;12618;54.386;18.394;2023-11-21T08:58:26;99864.70;;;0.04;100.00
24440;BME280;12618;54.386;18.394;2023-11-21T09:00:58;99862.97;;;0.08;100.00
24440;BME280;12618;54.386;18.394;2023-11-21T09:03:30;99864.86;;;0.11;100.00
24440;BME280;12618;54.386;18.394;2023-11-21T09:06:03;99867.09;;;0.15;100.00
24440;BME280;12618;54.386;18.394;2023-11-21T09:08:36;99868.28;;;0.23;100.00
24440;BME280;12618;54.386;18.394;2023-11-21T09:11:07;99876.21;;;0.31;100.00
24440;BME280;12618;54.386;18.394;2023-11-21T09:13:39;99873.92;;;0.41;100.00
24440;BME280;12618;54.386;18.394;2023-11-21T09:16:11;99877.16;;;0.50;100.00
24440;BME280;12618;54.386;18.394;2023-11-21T09:18:42;99877.43;;;0.64;100.00
24440;BME280;12618;54.386;18.394;2023-11-21T09:21:14;99879.98;;;0.73;100.00
24440;BME280;12618;54.386;18.394;2023-11-21T09:23:46;99879.93;;;0.82;100.00
24440;BME280;12618;54.386;18.394;2023-11-21T09:26:18;99885.58;;;0.93;100.00
24440;BME280;12618;54.386;18.394;2023-11-21T09:28:50;99877.38;;;1.03;100.00
24440;BME280;12618;54.386;18.394;2023-11-21T09:31:22;99877.14;;;1.10;100.00
24440;BME280;12618;54.386;18.394;2023-11-21T09:33:55;99885.09;;;1.15;99.97
24440;BME280;12618;54.386;18.394;2023-11-21T09:36:28;99886.96;;;1.20;100.00
24440;BME280;12618;54.386;18.394;2023-11-21T09:39:02;99882.63;;;1.20;100.00
24440;BME280;12618;54.386;18.394;2023-11-21T09:41:51;99882.13;;;1.18;100.00
24440;BME280;12618;54.386;18.394;2023-11-21T09:44:35;99881.10;;;1.14;100.00
24440;BME280;12618;54.386;18.394;2023-11-21T09:47:07;99883.73;;;1.11;99.88
24440;BME280;12618;54.386;18.394;2023-11-21T09:49:47;99888.45;;;1.06;98.83
24440;BME280;12618;54.386;18.394;2023-11-21T09:52:24;99888.66;;;1.00;98.15
24440;BME280;12618;54.386;18.394;2023-11-21T09:54:57;99883.82;;;0.99;99.93
24440;BME280;12618;54.386;18.394;2023-11-21T09:57:29;99888.86;;;0.96;95.15
24440;BME280;12618;54.386;18.394;2023-11-21T10:00:01;99889.55;;;0.96;97.46
24440;BME280;12618;54.386;18.394;2023-11-21T10:02:37;99883.44;;;1.01;98.57
24440;BME280;12618;54.386;18.394;2023-11-21T10:05:10;99888.80;;;1.05;97.44
24440;BME280;12618;54.386;18.394;2023-11-21T10:07:43;99880.83;;;1.04;98.03
24440;BME280;12618;54.386;18.394;2023-11-21T10:10:20;99882.39;;;1.04;99.04
24440;BME280;12618;54.386;18.394;2023-11-21T10:12:55;99885.15;;;1.06;99.96
24440;BME280;12618;54.386;18.394;2023-11-21T10:15:27;99885.16;;;1.05;99.11
24440;BME280;12618;54.386;18.394;2023-11-21T10:18:02;99886.89;;;1.06;100.00
24440;BME280;12618;54.386;18.394;2023-11-21T10:20:34;99888.45;;;1.07;100.00
24440;BME280;12618;54.386;18.394;2023-11-21T10:23:06;99890.86;;;1.06;98.98
24440;BME280;12618;54.386;18.394;2023-11-21T10:25:39;99896.59;;;1.05;99.42
24440;BME280;12618;54.386;18.394;2023-11-21T10:28:10;99903.36;;;1.02;99.09
24440;BME280;12618;54.386;18.394;2023-11-21T10:30:42;99901.48;;;0.99;98.31
24440;BME280;12618;54.386;18.394;2023-11-21T10:33:15;99900.59;;;1.01;99.64
24440;BME280;12618;54.386;18.394;2023-11-21T10:35:48;99902.33;;;1.04;99.11
24440;BME280;12618;54.386;18.394;2023-11-21T10:38:26;99909.09;;;1.03;99.64
24440;BME280;12618;54.386;18.394;2023-11-21T10:40:59;99918.95;;;1.04;97.68
24440;BME280;12618;54.386;18.394;2023-11-21T10:43:31;99922.95;;;1.02;98.12
24440;BME280;12618;54.386;18.394;2023-11-21T10:46:03;99922.24;;;1.02;97.45
24440;BME280;12618;54.386;18.394;2023-11-21T10:48:36;99918.98;;;1.00;96.26
24440;BME280;12618;54.386;18.394;2023-11-21T10:51:09;99921.94;;;0.99;97.43
24440;BME280;12618;54.386;18.394;2023-11-21T10:53:41;99920.17;;;1.02;99.23
24440;BME280;12618;54.386;18.394;2023-11-21T10:56:19;99918.78;;;1.02;99.94
24440;BME280;12618;54.386;18.394;2023-11-21T10:58:53;99919.52;;;0.97;97.76
24440;BME280;12618;54.386;18.394;2023-11-21T11:01:27;99923.16;;;0.96;97.82
24440;BME280;12618;54.386;18.394;2023-11-21T11:04:03;99925.95;;;0.93;95.18
24440;BME280;12618;54.386;18.394;2023-11-21T11:06:36;99921.42;;;0.97;99.55
24440;BME280;12618;54.386;18.394;2023-11-21T11:09:13;99925.58;;;0.97;96.35
24440;BME280;12618;54.386;18.394;2023-11-21T11:11:45;99933.54;;;0.99;94.86
24440;BME280;12618;54.386;18.394;2023-11-21T11:14:18;99934.73;;;1.01;98.04
24440;BME280;12618;54.386;18.394;2023-11-21T11:16:53;99935.59;;;1.01;97.03
24440;BME280;12618;54.386;18.394;2023-11-21T11:19:26;99938.37;;;1.00;97.06
24440;BME280;12618;54.386;18.394;2023-11-21T11:27:56;99955.22;;;0.93;94.15
24440;BME280;12618;54.386;18.394;2023-11-21T11:36:33;99950.03;;;0.91;94.95
24440;BME280;12618;54.386;18.394;2023-11-21T11:39:29;99950.89;;;0.93;92.64
24440;BME280;12618;54.386;18.394;2023-11-21T11:42:03;99951.75;;;0.95;92.68
24440;BME280;12618;54.386;18.394;2023-11-21T11:47:29;99954.87;;;0.96;92.37
24440;BME280;12618;54.386;18.394;2023-11-21T11:50:09;99955.39;;;0.97;94.15
24440;BME280;12618;54.386;18.394;2023-11-21T11:52:47;99951.88;;;1.01;98.19
24440;BME280;12618;54.386;18.394;2023-11-21T11:55:19;99957.06;;;1.03;94.80
24440;BME280;12618;54.386;18.394;2023-11-21T11:57:53;99955.51;;;1.04;97.96
24440;BME280;12618;54.386;18.394;2023-11-21T12:03:02;99957.58;;;1.06;99.71
24440;BME280;12618;54.386;18.394;2023-11-21T12:05:35;99962.05;;;1.11;99.99
24440;BME280;12618;54.386;18.394;2023-11-21T12:08:11;99962.40;;;1.11;100.00
24440;BME280;12618;54.386;18.394;2023-11-21T12:10:43;99965.36;;;1.09;99.46
24440;BME280;12618;54.386;18.394;2023-11-21T12:13:16;99967.45;;;1.04;94.73
24440;BME280;12618;54.386;18.394;2023-11-21T12:15:48;99965.04;;;1.02;96.71
24440;BME280;12618;54.386;18.394;2023-11-21T12:18:20;99970.58;;;1.02;93.99
24440;BME280;12618;54.386;18.394;2023-11-21T12:20:52;99966.11;;;0.99;94.65
24440;BME280;12618;54.386;18.394;2023-11-21T12:23:24;99966.98;;;0.98;95.71
24440;BME280;12618;54.386;18.394;2023-11-21T12:25:56;99972.39;;;0.89;93.96
24440;BME280;12618;54.386;18.394;2023-11-21T12:28:29;99981.77;;;0.86;95.40
24440;BME280;12618;54.386;18.394;2023-11-21T12:31:01;99984.02;;;0.82;94.23
24440;BME280;12618;54.386;18.394;2023-11-21T12:33:49;99988.87;;;0.79;94.64
24440;BME280;12618;54.386;18.394;2023-11-21T12:36:21;99985.06;;;0.79;97.06
24440;BME280;12618;54.386;18.394;2023-11-21T12:38:54;99992.52;;;0.79;96.05
24440;BME280;12618;54.386;18.394;2023-11-21T12:41:25;99988.18;;;0.80;98.26
24440;BME280;12618;54.386;18.394;2023-11-21T12:43:57;99986.45;;;0.82;99.21
24440;BME280;12618;54.386;18.394;2023-11-21T12:46:30;99989.05;;;0.82;97.54
24440;BME280;12618;54.386;18.394;2023-11-21T12:49:02;99992.16;;;0.83;97.95
24440;BME280;12618;54.386;18.394;2023-11-21T12:51:34;99995.80;;;0.84;95.09
24440;BME280;12618;54.386;18.394;2023-11-21T12:54:05;99999.45;;;0.84;96.81
24440;BME280;12618;54.386;18.394;2023-11-21T12:56:39;100007.23;;;0.82;96.44
24440;BME280;12618;54.386;18.394;2023-11-21T12:59:12;100011.73;;;0.81;95.20
24440;BME280;12618;54.386;18.394;2023-11-21T13:01:47;100008.79;;;0.82;94.05
24440;BME280;12618;54.386;18.394;2023-11-21T13:04:30;100011.55;;;0.86;95.11
24440;BME280;12618;54.386;18.394;2023-11-21T13:07:03;100021.26;;;0.85;87.93
24440;BME280;12618;54.386;18.394;2023-11-21T13:09:38;100020.70;;;0.92;91.21
24440;BME280;12618;54.386;18.394;2023-11-21T13:12:10;100025.20;;;0.97;92.95
24440;BME280;12618;54.386;18.394;2023-11-21T13:14:45;100029.52;;;0.99;90.13
24440;BME280;12618;54.386;18.394;2023-11-21T13:17:18;100029.66;;;1.07;93.15
24440;BME280;12618;54.386;18.394;2023-11-21T13:19:50;100025.64;;;1.13;93.50
24440;BME280;12618;54.386;18.394;2023-11-21T13:22:22;100023.34;;;1.21;96.28
24440;BME280;12618;54.386;18.394;2023-11-21T13:24:56;100026.10;;;1.24;93.58
24440;BME280;12618;54.386;18.394;2023-11-21T13:27:28;100035.96;;;1.28;96.82
24440;BME280;12618;54.386;18.394;2023-11-21T13:30:01;100038.91;;;1.27;94.98
24440;BME280;12618;54.386;18.394;2023-11-21T13:32:33;100040.83;;;1.24;93.23